Time,TemperatureF,DewpointF,PressureIn,WindDirection,WindDirectionDegrees,WindSpeedMPH,WindSpeedGustMPH,Humidity,HourlyPrecipIn,Conditions,Clouds,dailyrainin,SoftwareType,DateUTC
2013-07-01 00:02:00,62.0,56.0,30.04,WNW,283,0.0,0.0,82,0.00,,,0.00,,2013-07-01 05:02:00,
2013-07-01 00:11:00,63.0,57.0,30.04,WNW,283,0.0,0.0,82,0.00,,,0.00,,2013-07-01 05:11:00,
2013-07-01 00:22:00,63.0,57.0,30.04,WNW,283,0.0,0.0,82,0.00,,,0.00,,2013-07-01 05:22:00,
2013-07-01 00:33:00,61.0,56.0,30.04,WNW,282,0.0,0.0,84,0.00,,,0.00,,2013-07-01 05:33:00,
2013-07-01 00:42:00,61.0,56.0,30.04,WNW,282,0.0,0.0,84,0.00,,,0.00,,2013-07-01 05:42:00,
2013-07-01 00:52:00,60.0,56.0,30.04,WNW,283,0.0,0.0,87,0.00,,,0.00,,2013-07-01 05:52:00,
2013-07-01 01:02:00,60.0,56.0,30.04,WNW,283,0.0,0.0,87,0.00,,,0.00,,2013-07-01 06:02:00,
2013-07-01 01:12:00,59.0,55.0,30.04,WNW,283,0.0,0.0,88,0.00,,,0.00,,2013-07-01 06:12:00,
2013-07-01 01:24:00,58.0,55.0,30.05,WNW,283,0.0,0.0,91,0.00,,,0.00,,2013-07-01 06:24:00,
2013-07-01 01:33:00,58.0,55.0,30.05,WNW,283,0.0,0.0,91,0.00,,,0.00,,2013-07-01 06:33:00,
2013-07-01 01:43:00,60.0,57.0,30.05,WNW,282,0.0,0.0,90,0.00,,,0.00,,2013-07-01 06:43:00,
2013-07-01 01:53:00,60.0,57.0,30.05,WNW,282,0.0,0.0,90,0.00,,,0.00,,2013-07-01 06:53:00,
2013-07-01 02:01:00,60.0,57.0,30.06,WNW,283,0.0,0.0,90,0.00,,,0.00,,2013-07-01 07:01:00,
2013-07-01 02:11:00,60.0,57.0,30.06,WNW,283,0.0,0.0,90,0.00,,,0.00,,2013-07-01 07:11:00,
2013-07-01 02:22:00,59.0,56.0,30.06,WNW,283,0.0,1.0,91,0.00,,,0.00,,2013-07-01 07:22:00,
2013-07-01 02:33:00,59.0,56.0,30.06,WNW,283,0.0,1.0,91,0.00,,,0.00,,2013-07-01 07:33:00,
2013-07-01 02:43:00,59.0,56.0,30.06,WNW,283,0.0,1.0,91,0.00,,,0.00,,2013-07-01 07:43:00,
2013-07-01 02:53:00,59.0,56.0,30.06,WNW,283,0.0,1.0,91,0.00,,,0.00,,2013-07-01 07:53:00,
2013-07-01 03:01:00,60.0,57.0,30.06,NNW,342,0.0,1.0,90,0.00,,,0.00,,2013-07-01 08:01:00,
2013-07-01 03:11:00,60.0,57.0,30.06,NNW,342,0.0,1.0,90,0.00,,,0.00,,2013-07-01 08:11:00,
2013-07-01 03:22:00,60.0,57.0,30.06,North,5,0.0,1.0,90,0.00,,,0.00,,2013-07-01 08:22:00,
2013-07-01 03:33:00,60.0,57.0,30.06,North,5,0.0,1.0,90,0.00,,,0.00,,2013-07-01 08:33:00,
2013-07-01 03:42:00,59.0,57.0,30.06,NNE,15,0.0,1.0,92,0.00,,,0.00,,2013-07-01 08:42:00,
2013-07-01 03:52:00,58.0,56.0,30.06,NNW,340,0.0,1.0,93,0.00,,,0.00,,2013-07-01 08:52:00,
2013-07-01 04:02:00,58.0,56.0,30.06,NNW,340,0.0,1.0,93,0.00,,,0.00,,2013-07-01 09:02:00,
2013-07-01 04:11:00,59.0,57.0,30.06,NNW,330,1.0,2.0,92,0.00,,,0.00,,2013-07-01 09:11:00,
2013-07-01 04:22:00,59.0,57.0,30.06,NNW,330,1.0,2.0,92,0.00,,,0.00,,2013-07-01 09:22:00,
2013-07-01 04:34:00,60.0,57.0,30.06,NNW,342,0.0,2.0,89,0.00,,,0.00,,2013-07-01 09:34:00,
2013-07-01 04:43:00,60.0,57.0,30.06,NNW,342,0.0,2.0,89,0.00,,,0.00,,2013-07-01 09:43:00,
2013-07-01 04:53:00,60.0,57.0,30.06,North,358,0.0,1.0,90,0.00,,,0.00,,2013-07-01 09:53:00,
2013-07-01 05:03:00,60.0,57.0,30.06,North,358,0.0,1.0,90,0.00,,,0.00,,2013-07-01 10:03:00,
2013-07-01 05:11:00,59.0,55.0,30.07,ESE,103,1.0,2.0,88,0.00,,,0.00,,2013-07-01 10:11:00,
2013-07-01 05:22:00,59.0,55.0,30.07,ESE,103,1.0,2.0,88,0.00,,,0.00,,2013-07-01 10:22:00,
2013-07-01 05:33:00,59.0,56.0,30.07,East,98,0.0,1.0,91,0.00,,,0.00,,2013-07-01 10:33:00,
2013-07-01 05:42:00,59.0,56.0,30.07,East,98,0.0,1.0,91,0.00,,,0.00,,2013-07-01 10:42:00,
2013-07-01 05:52:00,58.0,56.0,30.08,NNE,15,0.0,1.0,92,0.00,,,0.00,,2013-07-01 10:52:00,
2013-07-01 06:02:00,58.0,56.0,30.09,NNE,15,0.0,0.0,92,0.00,,,0.00,,2013-07-01 11:02:00,
2013-07-01 06:11:00,58.0,56.0,30.09,NNE,15,0.0,0.0,92,0.00,,,0.00,,2013-07-01 11:11:00,
2013-07-01 06:22:00,57.0,55.0,30.09,NNE,15,0.0,0.0,93,0.00,,,0.00,,2013-07-01 11:22:00,
2013-07-01 06:33:00,57.0,55.0,30.09,NNE,15,0.0,0.0,93,0.00,,,0.00,,2013-07-01 11:33:00,
2013-07-01 06:43:00,58.0,56.0,30.09,NNE,15,0.0,0.0,93,0.00,,,0.00,,2013-07-01 11:43:00,
2013-07-01 06:52:00,58.0,56.0,30.09,NNE,15,0.0,0.0,93,0.00,,,0.00,,2013-07-01 11:52:00,
2013-07-01 07:01:00,59.0,57.0,30.10,NNE,15,0.0,0.0,92,0.00,,,0.00,,2013-07-01 12:01:00,
2013-07-01 07:11:00,59.0,57.0,30.10,NNE,15,0.0,0.0,92,0.00,,,0.00,,2013-07-01 12:11:00,
2013-07-01 07:22:00,61.0,57.0,30.10,NNE,15,0.0,0.0,88,0.00,,,0.00,,2013-07-01 12:22:00,
2013-07-01 07:33:00,61.0,57.0,30.10,NNE,15,0.0,0.0,88,0.00,,,0.00,,2013-07-01 12:33:00,
2013-07-01 07:43:00,59.0,57.0,30.10,NNE,13,0.0,0.0,92,0.00,,,0.00,,2013-07-01 12:43:00,
2013-07-01 07:53:00,59.0,57.0,30.10,NNE,13,0.0,0.0,92,0.00,,,0.00,,2013-07-01 12:53:00,
2013-07-01 08:02:00,60.0,58.0,30.10,NNE,15,0.0,1.0,92,0.00,,,0.00,,2013-07-01 13:02:00,
2013-07-01 08:12:00,62.0,59.0,30.11,West,265,0.0,2.0,91,0.00,,,0.00,,2013-07-01 13:12:00,
2013-07-01 08:23:00,62.0,59.0,30.11,West,265,0.0,2.0,91,0.00,,,0.00,,2013-07-01 13:23:00,
2013-07-01 08:33:00,65.0,61.0,30.11,NNW,335,1.0,2.0,88,0.00,,,0.00,,2013-07-01 13:33:00,
2013-07-01 08:43:00,65.0,61.0,30.11,NNW,335,1.0,2.0,88,0.00,,,0.00,,2013-07-01 13:43:00,
2013-07-01 08:53:00,68.0,62.0,30.11,East,88,1.0,2.0,81,0.00,,,0.00,,2013-07-01 13:53:00,
2013-07-01 09:01:00,68.0,62.0,30.11,East,88,1.0,2.0,81,0.00,,,0.00,,2013-07-01 14:01:00,
2013-07-01 09:11:00,70.0,62.0,30.11,ESE,106,1.0,3.0,77,0.00,,,0.00,,2013-07-01 14:11:00,
2013-07-01 09:22:00,70.0,62.0,30.11,ESE,106,1.0,3.0,77,0.00,,,0.00,,2013-07-01 14:22:00,
2013-07-01 09:34:00,71.0,60.0,30.11,ENE,77,2.0,4.0,69,0.00,,,0.00,,2013-07-01 14:34:00,
2013-07-01 09:43:00,71.0,60.0,30.11,ENE,77,2.0,4.0,69,0.00,,,0.00,,2013-07-01 14:43:00,
2013-07-01 09:52:00,73.0,56.0,30.11,ENE,77,2.0,5.0,56,0.00,,,0.00,,2013-07-01 14:52:00,
2013-07-01 10:02:00,73.0,56.0,30.11,ENE,77,2.0,5.0,56,0.00,,,0.00,,2013-07-01 15:02:00,
2013-07-01 10:11:00,75.0,55.0,30.11,NE,49,1.0,4.0,49,0.00,,,0.00,,2013-07-01 15:11:00,
2013-07-01 10:23:00,76.0,52.0,30.11,East,89,3.0,5.0,44,0.00,,,0.00,,2013-07-01 15:23:00,
2013-07-01 10:34:00,76.0,52.0,30.11,East,89,3.0,5.0,44,0.00,,,0.00,,2013-07-01 15:34:00,
2013-07-01 10:43:00,77.0,55.0,30.11,East,95,1.0,5.0,47,0.00,,,0.00,,2013-07-01 15:43:00,
2013-07-01 10:52:00,77.0,55.0,30.11,East,95,1.0,5.0,47,0.00,,,0.00,,2013-07-01 15:52:00,
2013-07-01 11:01:00,78.0,58.0,30.11,ESE,113,3.0,5.0,51,0.00,,,0.00,,2013-07-01 16:01:00,
2013-07-01 11:11:00,78.0,58.0,30.11,ESE,113,3.0,5.0,51,0.00,,,0.00,,2013-07-01 16:11:00,
2013-07-01 11:22:00,78.0,57.0,30.11,North,350,1.0,4.0,48,0.00,,,0.00,,2013-07-01 16:22:00,
2013-07-01 11:33:00,78.0,57.0,30.11,North,350,1.0,4.0,48,0.00,,,0.00,,2013-07-01 16:33:00,
2013-07-01 11:44:00,79.0,55.0,30.11,ENE,61,2.0,4.0,43,0.00,,,0.00,,2013-07-01 16:44:00,
2013-07-01 11:53:00,79.0,55.0,30.11,ENE,61,2.0,4.0,43,0.00,,,0.00,,2013-07-01 16:53:00,
2013-07-01 12:02:00,79.0,53.0,30.11,NE,50,1.0,4.0,41,0.00,,,0.00,,2013-07-01 17:02:00,
2013-07-01 12:12:00,79.0,53.0,30.11,NE,50,1.0,4.0,41,0.00,,,0.00,,2013-07-01 17:12:00,
2013-07-01 12:23:00,79.0,54.0,30.10,ENE,67,3.0,6.0,42,0.00,,,0.00,,2013-07-01 17:23:00,
2013-07-01 12:34:00,80.0,51.0,30.10,ENE,65,3.0,8.0,37,0.00,,,0.00,,2013-07-01 17:34:00,
2013-07-01 12:43:00,80.0,51.0,30.10,ENE,65,3.0,8.0,37,0.00,,,0.00,,2013-07-01 17:43:00,
2013-07-01 12:53:00,80.0,55.0,30.10,East,86,2.0,7.0,42,0.00,,,0.00,,2013-07-01 17:53:00,
2013-07-01 13:02:00,80.0,55.0,30.10,East,86,2.0,7.0,42,0.00,,,0.00,,2013-07-01 18:02:00,
2013-07-01 13:11:00,81.0,54.0,30.10,NNE,22,2.0,8.0,40,0.00,,,0.00,,2013-07-01 18:11:00,
2013-07-01 13:22:00,81.0,54.0,30.10,NNE,22,2.0,8.0,40,0.00,,,0.00,,2013-07-01 18:22:00,
2013-07-01 13:33:00,81.0,55.0,30.09,ENE,67,4.0,7.0,41,0.00,,,0.00,,2013-07-01 18:33:00,
2013-07-01 13:43:00,81.0,55.0,30.09,ENE,67,4.0,7.0,41,0.00,,,0.00,,2013-07-01 18:43:00,
2013-07-01 13:53:00,81.0,56.0,30.09,NW,311,8.0,10.0,43,0.00,,,0.00,,2013-07-01 18:53:00,
2013-07-01 14:02:00,81.0,56.0,30.09,NW,311,8.0,10.0,43,0.00,,,0.00,,2013-07-01 19:02:00,
2013-07-01 14:11:00,81.0,56.0,30.09,ENE,63,2.0,6.0,42,0.00,,,0.00,,2013-07-01 19:11:00,
2013-07-01 14:22:00,81.0,56.0,30.09,ENE,63,2.0,6.0,42,0.00,,,0.00,,2013-07-01 19:22:00,
2013-07-01 14:33:00,80.0,54.0,30.08,NNE,24,4.0,7.0,41,0.00,,,0.00,,2013-07-01 19:33:00,
2013-07-01 14:44:00,80.0,54.0,30.08,NNE,24,4.0,7.0,41,0.00,,,0.00,,2013-07-01 19:44:00,
2013-07-01 14:52:00,80.0,55.0,30.08,NNW,335,3.0,5.0,43,0.00,,,0.00,,2013-07-01 19:52:00,
2013-07-01 15:02:00,80.0,55.0,30.07,ENE,70,4.0,7.0,43,0.00,,,0.00,,2013-07-01 20:02:00,
2013-07-01 15:11:00,80.0,55.0,30.07,ENE,70,4.0,7.0,43,0.00,,,0.00,,2013-07-01 20:11:00,
2013-07-01 15:22:00,80.0,54.0,30.07,NE,50,3.0,6.0,41,0.00,,,0.00,,2013-07-01 20:22:00,
2013-07-01 15:34:00,80.0,54.0,30.07,NE,50,3.0,6.0,41,0.00,,,0.00,,2013-07-01 20:34:00,
2013-07-01 15:43:00,80.0,56.0,30.07,ENE,57,1.0,4.0,44,0.00,,,0.00,,2013-07-01 20:43:00,
2013-07-01 15:52:00,80.0,56.0,30.07,ENE,57,1.0,4.0,44,0.00,,,0.00,,2013-07-01 20:52:00,
2013-07-01 16:02:00,81.0,56.0,30.06,NE,44,1.0,4.0,42,0.00,,,0.00,,2013-07-01 21:02:00,
2013-07-01 16:11:00,81.0,56.0,30.06,NE,44,1.0,4.0,42,0.00,,,0.00,,2013-07-01 21:11:00,
2013-07-01 16:24:00,81.0,55.0,30.07,ENE,66,3.0,7.0,41,0.00,,,0.00,,2013-07-01 21:24:00,
2013-07-01 16:34:00,81.0,55.0,30.07,ENE,66,3.0,7.0,41,0.00,,,0.00,,2013-07-01 21:34:00,
2013-07-01 16:43:00,80.0,56.0,30.06,ENE,72,1.0,10.0,44,0.00,,,0.00,,2013-07-01 21:43:00,
2013-07-01 17:01:00,80.0,57.0,30.06,NE,54,1.0,5.0,45,0.00,,,0.00,,2013-07-01 22:01:00,
2013-07-01 17:11:00,81.0,58.0,30.06,ENE,61,1.0,6.0,45,0.00,,,0.00,,2013-07-01 22:11:00,
2013-07-01 17:24:00,81.0,58.0,30.06,ENE,61,1.0,6.0,45,0.00,,,0.00,,2013-07-01 22:24:00,
2013-07-01 17:33:00,81.0,55.0,30.06,NE,49,5.0,9.0,41,0.00,,,0.00,,2013-07-01 22:33:00,
2013-07-01 17:43:00,81.0,55.0,30.06,NE,49,5.0,9.0,41,0.00,,,0.00,,2013-07-01 22:43:00,
2013-07-01 17:53:00,81.0,54.0,30.06,ENE,78,10.0,11.0,40,0.00,,,0.00,,2013-07-01 22:53:00,
2013-07-01 18:01:00,81.0,54.0,30.06,ENE,78,10.0,11.0,40,0.00,,,0.00,,2013-07-01 23:01:00,
2013-07-01 18:11:00,81.0,55.0,30.06,NE,43,5.0,8.0,41,0.00,,,0.00,,2013-07-01 23:11:00,
2013-07-01 18:22:00,81.0,55.0,30.06,NE,43,5.0,8.0,41,0.00,,,0.00,,2013-07-01 23:22:00,
2013-07-01 18:33:00,80.0,55.0,30.06,NNE,15,4.0,8.0,43,0.00,,,0.00,,2013-07-01 23:33:00,
2013-07-01 18:44:00,80.0,55.0,30.06,NNE,15,4.0,8.0,43,0.00,,,0.00,,2013-07-01 23:44:00,
2013-07-01 18:53:00,79.0,55.0,30.06,NE,45,4.0,11.0,43,0.00,,,0.00,,2013-07-01 23:53:00,
2013-07-01 19:01:00,79.0,55.0,30.05,NE,49,2.0,8.0,44,0.00,,,0.00,,2013-07-02 00:01:00,
2013-07-01 19:22:00,79.0,55.0,30.05,NE,49,2.0,8.0,44,0.00,,,0.00,,2013-07-02 00:22:00,
2013-07-01 19:34:00,79.0,55.0,30.05,NE,49,2.0,8.0,44,0.00,,,0.00,,2013-07-02 00:34:00,
2013-07-01 19:53:00,79.0,56.0,30.06,ENE,60,1.0,5.0,46,0.00,,,0.00,,2013-07-02 00:53:00,
2013-07-01 20:01:00,79.0,57.0,30.06,ENE,71,2.0,5.0,47,0.00,,,0.00,,2013-07-02 01:01:00,
2013-07-01 20:11:00,79.0,57.0,30.06,ENE,71,2.0,5.0,47,0.00,,,0.00,,2013-07-02 01:11:00,
2013-07-01 20:22:00,78.0,57.0,30.06,ENE,72,1.0,3.0,48,0.00,,,0.00,,2013-07-02 01:22:00,
2013-07-01 20:33:00,78.0,57.0,30.06,ENE,72,1.0,3.0,48,0.00,,,0.00,,2013-07-02 01:33:00,
2013-07-01 20:43:00,77.0,57.0,30.06,ENE,72,0.0,1.0,50,0.00,,,0.00,,2013-07-02 01:43:00,
2013-07-01 20:53:00,77.0,57.0,30.06,ENE,72,0.0,1.0,50,0.00,,,0.00,,2013-07-02 01:53:00,
2013-07-01 21:02:00,76.0,58.0,30.06,East,88,0.0,1.0,54,0.00,,,0.00,,2013-07-02 02:02:00,
2013-07-01 21:12:00,75.0,58.0,30.06,NE,54,0.0,1.0,56,0.00,,,0.00,,2013-07-02 02:12:00,
2013-07-01 21:22:00,75.0,58.0,30.06,NE,54,0.0,1.0,56,0.00,,,0.00,,2013-07-02 02:22:00,
2013-07-01 21:33:00,73.0,58.0,30.06,ENE,75,0.0,1.0,59,0.00,,,0.00,,2013-07-02 02:33:00,
2013-07-01 21:43:00,73.0,58.0,30.06,ENE,75,0.0,1.0,59,0.00,,,0.00,,2013-07-02 02:43:00,
2013-07-01 21:53:00,71.0,59.0,30.06,ENE,75,0.0,1.0,66,0.00,,,0.00,,2013-07-02 02:53:00,
2013-07-01 22:01:00,71.0,59.0,30.06,ENE,75,0.0,1.0,66,0.00,,,0.00,,2013-07-02 03:01:00,
2013-07-01 22:12:00,69.0,60.0,30.06,NNW,338,1.0,2.0,73,0.00,,,0.00,,2013-07-02 03:12:00,
2013-07-01 22:24:00,69.0,60.0,30.06,NNW,338,1.0,2.0,73,0.00,,,0.00,,2013-07-02 03:24:00,
2013-07-01 22:32:00,69.0,59.0,30.07,NNW,342,2.0,3.0,70,0.00,,,0.00,,2013-07-02 03:32:00,
2013-07-01 22:43:00,69.0,59.0,30.07,NNW,342,2.0,3.0,70,0.00,,,0.00,,2013-07-02 03:43:00,
2013-07-01 22:53:00,71.0,56.0,30.07,NNE,15,2.0,5.0,60,0.00,,,0.00,,2013-07-02 03:53:00,
2013-07-01 23:02:00,71.0,56.0,30.07,NNE,15,2.0,5.0,60,0.00,,,0.00,,2013-07-02 04:02:00,
2013-07-01 23:11:00,69.0,56.0,30.07,NE,51,1.0,4.0,63,0.00,,,0.00,,2013-07-02 04:11:00,
2013-07-01 23:22:00,69.0,56.0,30.07,NE,51,1.0,4.0,63,0.00,,,0.00,,2013-07-02 04:22:00,
2013-07-01 23:32:00,69.0,56.0,30.07,NE,51,1.0,4.0,63,0.00,,,0.00,,2013-07-02 04:32:00,
2013-07-01 23:42:00,69.0,56.0,30.07,NE,51,1.0,4.0,63,0.00,,,0.00,,2013-07-02 04:42:00,
2013-07-01 23:53:00,66.0,57.0,30.07,East,89,0.0,1.0,74,0.00,,,0.00,,2013-07-02 04:53:00,